createdAt,value
2019-05-21T00:00:39.757Z,100755.65
2019-05-21T00:03:09.109Z,100741.27
2019-05-21T00:05:38.456Z,100743.70
2019-05-21T00:08:07.774Z,100747.66
2019-05-21T00:10:37.070Z,100747.86
2019-05-21T00:13:06.396Z,100759.92
2019-05-21T00:15:35.692Z,100758.31
2019-05-21T00:18:05.226Z,100762.03
2019-05-21T00:20:34.771Z,100764.23
2019-05-21T00:23:04.021Z,100763.16
2019-05-21T00:25:33.303Z,100770.11
2019-05-21T00:28:39.715Z,100766.88
2019-05-21T00:31:44.969Z,100762.03
2019-05-21T00:34:50.694Z,100754.86
2019-05-21T00:37:55.779Z,100754.72
2019-05-21T00:41:00.959Z,100756.39
2019-05-21T00:43:46.371Z,100747.20
2019-05-21T00:46:15.658Z,100743.05
2019-05-21T00:48:45.184Z,100742.32
2019-05-21T00:51:14.474Z,100725.50
2019-05-21T00:53:43.777Z,100733.31
2019-05-21T00:56:13.091Z,100729.56
2019-05-21T00:58:42.352Z,100729.95
2019-05-21T01:01:11.853Z,100720.28
2019-05-21T01:03:43.280Z,100716.17
2019-05-21T01:06:12.182Z,100721.92
2019-05-21T01:08:41.408Z,100714.01
2019-05-21T01:11:10.674Z,100727.73
2019-05-21T01:13:39.968Z,100721.67
2019-05-21T01:16:09.296Z,100710.17
2019-05-21T01:18:38.558Z,100721.00
2019-05-21T01:21:07.940Z,100719.52
2019-05-21T01:23:37.196Z,100714.02
2019-05-21T01:26:06.464Z,100714.10
2019-05-21T01:28:35.702Z,100729.28
2019-05-21T01:31:04.991Z,100725.25
2019-05-21T01:33:34.311Z,100724.98
2019-05-21T01:36:04.671Z,100731.77
2019-05-21T01:38:33.914Z,100729.01
2019-05-21T01:41:03.189Z,100722.47
2019-05-21T01:43:32.431Z,100717.23
2019-05-21T01:46:01.711Z,100724.75
2019-05-21T01:48:30.973Z,100723.42
2019-05-21T01:51:00.297Z,100727.89
2019-05-21T01:53:29.563Z,100719.98
2019-05-21T01:55:58.852Z,100722.05
2019-05-21T01:58:28.402Z,100724.97
2019-05-21T02:00:57.843Z,100719.45
2019-05-21T02:03:27.114Z,100719.20
2019-05-21T02:05:56.581Z,100709.06
2019-05-21T02:08:25.839Z,100718.61
2019-05-21T02:10:55.129Z,100723.20
2019-05-21T02:13:24.402Z,100719.14
2019-05-21T02:15:53.699Z,100729.56
2019-05-21T02:18:23.101Z,100717.48
2019-05-21T02:20:52.380Z,100730.91
2019-05-21T02:23:21.686Z,100726.55
2019-05-21T02:25:50.923Z,100735.06
2019-05-21T02:28:22.616Z,100726.01
2019-05-21T02:30:56.040Z,100728.60
2019-05-21T02:33:22.251Z,100737.27
2019-05-21T02:35:54.694Z,100740.11
2019-05-21T02:38:22.518Z,100738.80
2019-05-21T02:40:51.812Z,100745.37
2019-05-21T02:43:21.089Z,100752.98
2019-05-21T02:45:50.348Z,100750.20
2019-05-21T02:48:19.646Z,100750.14
2019-05-21T02:50:48.892Z,100753.12
2019-05-21T02:53:18.177Z,100750.55
2019-05-21T02:55:47.455Z,100753.48
2019-05-21T02:58:16.744Z,100765.02
2019-05-21T03:01:08.086Z,100756.05
2019-05-21T03:03:37.440Z,100766.14
2019-05-21T03:06:13.888Z,100757.28
2019-05-21T03:08:37.707Z,100764.32
2019-05-21T03:11:06.961Z,100760.39
2019-05-21T03:13:36.255Z,100758.02
2019-05-21T03:16:05.540Z,100767.50
2019-05-21T03:18:34.853Z,100767.93
2019-05-21T03:21:04.101Z,100773.44
2019-05-21T03:23:33.414Z,100771.41
2019-05-21T03:26:02.682Z,100783.41
2019-05-21T03:28:31.953Z,100787.05
2019-05-21T03:31:01.291Z,100786.52
2019-05-21T03:33:30.637Z,100785.32
2019-05-21T03:35:59.901Z,100783.31
2019-05-21T03:38:29.188Z,100789.15
2019-05-21T03:40:58.496Z,100792.28
2019-05-21T03:43:27.781Z,100792.25
2019-05-21T03:45:57.112Z,100791.47
2019-05-21T03:48:26.405Z,100793.72
2019-05-21T03:50:55.677Z,100783.76
2019-05-21T03:53:24.959Z,100783.22
2019-05-21T03:55:54.239Z,100780.27
2019-05-21T03:58:23.520Z,100786.83
2019-05-21T04:00:52.822Z,100790.63
2019-05-21T04:03:22.833Z,100794.25
2019-05-21T04:05:52.085Z,100800.67
2019-05-21T04:08:21.459Z,100792.83
2019-05-21T04:10:50.808Z,100797.60
2019-05-21T04:13:20.099Z,100798.40
2019-05-21T04:16:01.752Z,100795.77
2019-05-21T04:18:39.207Z,100796.91
2019-05-21T04:21:08.601Z,100794.56
2019-05-21T04:23:37.862Z,100805.02
2019-05-21T04:26:07.172Z,100794.05
2019-05-21T04:28:36.483Z,100805.93
2019-05-21T04:31:05.815Z,100803.75
2019-05-21T04:33:35.120Z,100800.34
2019-05-21T04:36:04.660Z,100803.05
2019-05-21T04:38:34.015Z,100801.92
2019-05-21T04:41:03.355Z,100802.16
2019-05-21T04:43:32.671Z,100806.63
2019-05-21T04:46:02.026Z,100799.04
2019-05-21T04:48:31.331Z,100802.41
2019-05-21T04:51:00.625Z,100798.34
2019-05-21T04:53:29.881Z,100800.73
2019-05-21T04:55:59.193Z,100786.14
2019-05-21T04:58:28.490Z,100789.78
2019-05-21T05:00:57.732Z,100790.52
2019-05-21T05:03:27.030Z,100787.28
2019-05-21T05:05:56.302Z,100793.00
2019-05-21T05:08:25.673Z,100792.95
2019-05-21T05:10:54.963Z,100797.13
2019-05-21T05:13:24.287Z,100803.05
2019-05-21T05:15:53.551Z,100815.09
2019-05-21T05:18:22.948Z,100815.94
2019-05-21T05:20:52.268Z,100821.20
2019-05-21T05:23:21.682Z,100830.89
2019-05-21T05:25:51.010Z,100835.55
2019-05-21T05:28:20.319Z,100841.83
2019-05-21T05:30:49.646Z,100839.97
2019-05-21T05:33:18.941Z,100841.17
2019-05-21T05:35:49.100Z,100835.19
2019-05-21T05:38:26.012Z,100840.07
2019-05-21T05:40:55.362Z,100837.74
2019-05-21T05:43:24.724Z,100841.31
2019-05-21T05:45:54.040Z,100850.20
2019-05-21T05:48:23.564Z,100853.04
2019-05-21T05:50:54.769Z,100849.77
2019-05-21T05:53:24.111Z,100851.62
2019-05-21T05:55:53.513Z,100850.45
2019-05-21T05:58:22.821Z,100856.04
2019-05-21T06:00:52.146Z,100852.39
2019-05-21T06:03:21.485Z,100851.58
2019-05-21T06:05:50.793Z,100858.26
2019-05-21T06:08:20.105Z,100851.77
2019-05-21T06:10:49.497Z,100853.46
2019-05-21T06:13:18.811Z,100854.37
2019-05-21T06:15:48.082Z,100855.35
2019-05-21T06:18:17.457Z,100855.55
2019-05-21T06:20:46.792Z,100859.94
2019-05-21T06:23:16.160Z,100860.32
2019-05-21T06:25:45.493Z,100856.92
2019-05-21T06:28:14.817Z,100866.23
2019-05-21T06:30:44.130Z,100864.11
2019-05-21T06:33:13.425Z,100863.81
2019-05-21T06:35:42.747Z,100867.95
2019-05-21T06:38:17.717Z,100871.02
2019-05-21T06:40:43.052Z,100878.56
2019-05-21T06:43:12.358Z,100880.39
2019-05-21T06:45:42.029Z,100885.13
2019-05-21T06:48:11.276Z,100886.12
2019-05-21T06:50:40.569Z,100883.36
2019-05-21T06:53:09.883Z,100889.62
2019-05-21T06:55:39.218Z,100892.20
2019-05-21T06:58:08.566Z,100896.34
2019-05-21T07:00:37.864Z,100893.70
2019-05-21T07:03:07.170Z,100904.98
2019-05-21T07:05:36.714Z,100904.75
2019-05-21T07:08:05.998Z,100902.59
2019-05-21T07:10:35.378Z,100908.34
2019-05-21T07:13:04.762Z,100916.93
2019-05-21T07:15:34.038Z,100915.78
2019-05-21T07:18:03.356Z,100923.80
2019-05-21T07:20:32.704Z,100924.78
2019-05-21T07:23:02.391Z,100926.04
2019-05-21T07:25:31.700Z,100927.91
2019-05-21T07:28:00.976Z,100939.75
2019-05-21T07:30:30.370Z,100933.56
2019-05-21T07:32:59.719Z,100935.80
2019-05-21T07:35:29.050Z,100940.86
2019-05-21T07:37:58.408Z,100944.61
2019-05-21T07:40:27.770Z,100943.59
2019-05-21T07:42:57.127Z,100942.33
2019-05-21T07:45:26.407Z,100940.45
2019-05-21T07:47:55.743Z,100957.12
2019-05-21T07:50:25.036Z,100953.17
2019-05-21T07:52:54.480Z,100953.61
2019-05-21T07:55:23.881Z,100951.67
2019-05-21T07:57:53.265Z,100959.66
2019-05-21T08:00:25.554Z,100960.04
2019-05-21T08:02:54.958Z,100972.89
2019-05-21T08:05:24.259Z,100968.46
2019-05-21T08:07:53.621Z,100977.44
2019-05-21T08:10:22.871Z,100978.63
2019-05-21T08:12:52.205Z,100979.30
2019-05-21T08:15:21.569Z,100980.91
2019-05-21T08:17:50.929Z,100973.48
2019-05-21T08:20:24.823Z,100984.45
2019-05-21T08:22:54.116Z,100977.48
2019-05-21T08:25:23.457Z,100992.19
2019-05-21T08:27:52.943Z,100994.20
2019-05-21T08:30:22.574Z,100994.76
2019-05-21T08:32:51.905Z,100996.41
2019-05-21T08:35:21.299Z,100997.31
2019-05-21T08:37:50.593Z,100993.95
2019-05-21T08:40:20.107Z,100995.92
2019-05-21T08:42:49.471Z,100996.42
2019-05-21T08:45:18.864Z,101002.01
2019-05-21T08:47:48.191Z,101000.95
2019-05-21T08:50:17.605Z,101007.94
2019-05-21T08:52:46.928Z,101011.02
2019-05-21T08:55:16.260Z,101019.96
2019-05-21T08:57:45.549Z,101007.27
2019-05-21T09:00:17.356Z,101013.68
2019-05-21T09:02:46.618Z,101018.47
2019-05-21T09:05:16.169Z,101016.35
2019-05-21T09:07:45.573Z,101021.86
2019-05-21T09:10:15.199Z,101025.97
2019-05-21T09:12:44.510Z,101032.66
2019-05-21T09:15:14.343Z,101026.71
2019-05-21T09:17:43.657Z,101032.35
2019-05-21T09:20:13.693Z,101038.49
2019-05-21T09:22:43.041Z,101041.92
2019-05-21T09:25:12.499Z,101035.40
2019-05-21T09:27:41.829Z,101043.37
2019-05-21T09:30:13.049Z,101041.16
2019-05-21T09:32:42.370Z,101052.27
2019-05-21T09:35:12.006Z,101054.80
2019-05-21T09:37:41.261Z,101057.83
2019-05-21T09:40:11.619Z,101054.66
2019-05-21T09:42:40.916Z,101057.84
2019-05-21T09:45:11.164Z,101060.95
2019-05-21T09:47:40.648Z,101059.59
2019-05-21T09:50:11.896Z,101062.81
2019-05-21T09:52:42.692Z,101066.19
2019-05-21T09:55:12.322Z,101073.93
2019-05-21T09:57:48.534Z,101077.55
2019-05-21T10:00:37.429Z,101074.68
2019-05-21T10:03:09.674Z,101074.27
2019-05-21T10:05:38.995Z,101078.67
2019-05-21T10:08:08.334Z,101076.91
2019-05-21T10:10:37.675Z,101076.67
2019-05-21T10:13:06.984Z,101087.81
2019-05-21T10:15:36.369Z,101090.34
2019-05-21T10:18:05.725Z,101096.11
2019-05-21T10:20:35.122Z,101088.92
2019-05-21T10:23:04.448Z,101090.42
2019-05-21T10:25:33.790Z,101101.78
2019-05-21T10:28:03.146Z,101098.88
2019-05-21T10:30:32.449Z,101117.96
2019-05-21T10:33:01.772Z,101106.59
2019-05-21T10:35:31.117Z,101103.19
2019-05-21T10:38:00.410Z,101104.50
2019-05-21T10:40:29.701Z,101113.54
2019-05-21T10:42:59.030Z,101110.18
2019-05-21T10:45:28.339Z,101129.73
2019-05-21T10:47:57.658Z,101122.61
2019-05-21T10:50:26.968Z,101113.55
2019-05-21T10:52:56.278Z,101113.05
2019-05-21T10:55:25.609Z,101121.84
2019-05-21T10:57:54.918Z,101123.90
2019-05-21T11:00:25.310Z,101110.50
2019-05-21T11:02:59.469Z,101116.99
2019-05-21T11:05:43.585Z,101117.82
2019-05-21T11:08:23.618Z,101123.48
2019-05-21T11:10:43.870Z,101123.56
2019-05-21T11:13:13.198Z,101128.48
2019-05-21T11:15:42.483Z,101127.69
2019-05-21T11:18:12.263Z,101121.31
2019-05-21T11:20:41.732Z,101131.81
2019-05-21T11:23:11.085Z,101139.70
2019-05-21T11:25:40.394Z,101136.59
2019-05-21T11:28:09.802Z,101145.75
2019-05-21T11:30:39.134Z,101145.97
2019-05-21T11:33:08.496Z,101152.11
2019-05-21T11:35:37.820Z,101157.37
2019-05-21T11:38:07.176Z,101158.27
2019-05-21T11:40:36.519Z,101152.39
2019-05-21T11:43:05.847Z,101148.95
2019-05-21T11:45:35.311Z,101161.51
2019-05-21T11:48:04.632Z,101166.78
2019-05-21T11:50:34.021Z,101168.11
2019-05-21T11:53:03.341Z,101172.55
2019-05-21T11:55:32.661Z,101176.91
2019-05-21T11:58:01.942Z,101173.38
2019-05-21T12:00:31.386Z,101187.89
2019-05-21T12:03:00.758Z,101181.58
2019-05-21T12:05:30.154Z,101183.99
2019-05-21T12:07:59.467Z,101184.19
2019-05-21T12:10:28.810Z,101186.42
2019-05-21T12:12:58.253Z,101187.22
2019-05-21T12:15:27.599Z,101187.87
2019-05-21T12:17:56.962Z,101196.25
2019-05-21T12:20:36.063Z,101200.21
2019-05-21T12:22:57.314Z,101197.88
2019-05-21T12:25:26.681Z,101202.02
2019-05-21T12:27:55.993Z,101201.44
2019-05-21T12:30:25.790Z,101206.27
2019-05-21T12:32:55.108Z,101206.35
2019-05-21T12:35:24.460Z,101208.17
2019-05-21T12:37:53.790Z,101216.55
2019-05-21T12:40:23.342Z,101218.30
2019-05-21T12:42:52.681Z,101212.46
2019-05-21T12:45:22.007Z,101215.08
2019-05-21T12:47:51.347Z,101208.89
2019-05-21T12:50:20.960Z,101217.46
2019-05-21T12:52:50.354Z,101218.66
2019-05-21T12:55:19.663Z,101221.36
2019-05-21T12:57:48.958Z,101219.41
2019-05-21T13:00:18.970Z,101215.21
2019-05-21T13:02:48.268Z,101227.20
2019-05-21T13:05:17.859Z,101219.60
2019-05-21T13:07:47.169Z,101223.58
2019-05-21T13:10:16.515Z,101234.03
2019-05-21T13:12:45.981Z,101231.89
2019-05-21T13:15:15.441Z,101237.18
2019-05-21T13:17:44.909Z,101234.27
2019-05-21T13:20:14.500Z,101238.23
2019-05-21T13:22:43.972Z,101247.03
2019-05-21T13:25:13.341Z,101254.36
2019-05-21T13:27:42.717Z,101256.57
2019-05-21T13:30:12.795Z,101253.69
2019-05-21T13:32:43.954Z,101259.20
2019-05-21T13:35:13.415Z,101263.55
2019-05-21T13:37:42.882Z,101263.66
2019-05-21T13:40:13.922Z,101272.48
2019-05-21T13:42:43.249Z,101274.61
2019-05-21T13:45:12.864Z,101272.74
2019-05-21T13:47:42.226Z,101275.95
2019-05-21T13:50:12.094Z,101280.92
2019-05-21T13:52:41.554Z,101279.91
2019-05-21T13:55:11.553Z,101283.30
2019-05-21T13:57:40.945Z,101284.28
2019-05-21T14:00:14.177Z,101288.13
2019-05-21T14:02:43.462Z,101285.48
2019-05-21T14:05:13.026Z,101283.52
2019-05-21T14:07:42.466Z,101295.96
2019-05-21T14:10:15.408Z,101295.98
2019-05-21T14:12:43.075Z,101300.59
2019-05-21T14:15:12.528Z,101306.00
2019-05-21T14:17:41.858Z,101306.56
2019-05-21T14:20:13.504Z,101307.41
2019-05-21T14:22:42.931Z,101298.72
2019-05-21T14:25:15.156Z,101303.38
2019-05-21T14:27:45.289Z,101306.28
2019-05-21T14:30:14.868Z,101311.04
2019-05-21T14:32:48.051Z,101309.39
2019-05-21T14:35:17.451Z,101314.28
2019-05-21T14:37:46.770Z,101315.34
2019-05-21T14:40:30.989Z,101314.05
2019-05-21T14:42:59.146Z,101303.96
2019-05-21T14:45:19.289Z,101312.76
2019-05-21T14:47:48.687Z,101313.52
2019-05-21T14:50:18.381Z,101316.67
2019-05-21T14:52:51.984Z,101322.28
2019-05-21T14:55:18.828Z,101320.61
2019-05-21T14:57:48.155Z,101327.67
2019-05-21T15:00:24.067Z,101324.50
2019-05-21T15:02:53.407Z,101321.39
2019-05-21T15:05:22.815Z,101318.73
2019-05-21T15:07:53.619Z,101324.11
2019-05-21T15:10:24.569Z,101322.97
2019-05-21T15:12:53.909Z,101326.98
2019-05-21T15:15:24.735Z,101332.07
2019-05-21T15:17:54.154Z,101324.89
2019-05-21T15:20:55.383Z,101328.56
2019-05-21T15:23:24.799Z,101328.31
2019-05-21T15:25:54.187Z,101336.88
2019-05-21T15:28:23.573Z,101331.30
2019-05-21T15:30:52.979Z,101329.21
2019-05-21T15:33:23.532Z,101343.47
2019-05-21T15:35:54.548Z,101335.05
2019-05-21T15:38:23.893Z,101336.91
2019-05-21T15:41:09.617Z,101333.94
2019-05-21T15:43:24.437Z,101333.52
2019-05-21T15:45:53.835Z,101339.72
2019-05-21T15:48:26.389Z,101344.41
2019-05-21T15:50:54.330Z,101338.03
2019-05-21T15:53:23.768Z,101343.80
2019-05-21T15:55:53.191Z,101339.61
2019-05-21T15:58:26.546Z,101346.28
2019-05-21T16:00:57.031Z,101346.86
2019-05-21T16:03:25.412Z,101343.77
2019-05-21T16:05:55.055Z,101352.96
2019-05-21T16:08:24.410Z,101359.11
2019-05-21T16:10:58.470Z,101357.48
2019-05-21T16:13:29.184Z,101357.55
2019-05-21T16:15:58.726Z,101360.08
2019-05-21T16:18:28.151Z,101359.83
2019-05-21T16:20:57.730Z,101363.09
2019-05-21T16:23:28.866Z,101368.59
2019-05-21T16:25:58.382Z,101370.69
2019-05-21T16:28:27.864Z,101365.79
2019-05-21T16:30:57.314Z,101368.73
2019-05-21T16:33:26.770Z,101366.23
2019-05-21T16:35:56.175Z,101374.02
2019-05-21T16:38:25.629Z,101367.35
2019-05-21T16:40:54.987Z,101382.96
2019-05-21T16:43:24.413Z,101360.98
2019-05-21T16:45:53.802Z,101370.47
2019-05-21T16:48:27.714Z,101371.03
2019-05-21T16:50:57.240Z,101372.00
2019-05-21T16:53:26.683Z,101374.23
2019-05-21T16:55:56.122Z,101373.99
2019-05-21T16:58:28.040Z,101368.38
2019-05-21T17:01:23.495Z,101368.83
2019-05-21T17:04:00.050Z,101372.25
2019-05-21T17:08:23.252Z,101373.36
2019-05-21T17:09:21.112Z,101369.58
2019-05-21T17:12:04.949Z,101375.17
2019-05-21T17:15:21.917Z,101375.72
2019-05-21T17:17:07.861Z,101374.47
2019-05-21T17:19:36.989Z,101370.73
2019-05-21T17:22:06.380Z,101380.81
2019-05-21T17:24:37.049Z,101387.44
2019-05-21T17:27:37.915Z,101383.05
2019-05-21T17:30:13.409Z,101385.72
2019-05-21T17:32:42.868Z,101379.31
2019-05-21T17:35:14.260Z,101381.83
2019-05-21T17:37:43.758Z,101386.08
2019-05-21T17:40:13.533Z,101383.02
2019-05-21T17:42:42.969Z,101389.37
2019-05-21T17:45:13.498Z,101382.50
2019-05-21T17:47:42.962Z,101391.01
2019-05-21T17:50:13.152Z,101388.36
2019-05-21T17:52:42.534Z,101388.69
2019-05-21T17:55:12.321Z,101395.92
2019-05-21T17:57:42.516Z,101403.11
2019-05-21T18:00:15.701Z,101392.98
2019-05-21T18:02:45.539Z,101393.90
2019-05-21T18:05:17.446Z,101402.63
2019-05-21T18:07:47.010Z,101397.59
2019-05-21T18:10:19.231Z,101400.50
2019-05-21T18:12:50.746Z,101397.70
2019-05-21T18:15:27.613Z,101401.86
2019-05-21T18:17:53.989Z,101402.38
2019-05-21T18:20:26.248Z,101403.26
2019-05-21T18:22:55.739Z,101406.03
2019-05-21T18:25:26.967Z,101406.27
2019-05-21T18:27:56.592Z,101407.69
2019-05-21T18:30:26.128Z,101413.03
2019-05-21T18:32:55.683Z,101405.94
2019-05-21T18:35:28.793Z,101408.94
2019-05-21T18:37:58.525Z,101427.11
2019-05-21T18:40:29.125Z,101420.75
2019-05-21T18:42:58.560Z,101434.52
2019-05-21T18:45:28.184Z,101427.83
2019-05-21T18:47:57.673Z,101429.57
2019-05-21T18:50:35.569Z,101429.32
2019-05-21T18:52:58.472Z,101432.33
2019-05-21T18:55:27.853Z,101426.41
2019-05-21T18:57:57.380Z,101429.46
2019-05-21T19:00:27.300Z,101437.53
2019-05-21T19:02:56.882Z,101438.02
2019-05-21T19:05:26.309Z,101443.55
2019-05-21T19:07:55.861Z,101448.91
2019-05-21T19:10:25.294Z,101450.75
2019-05-21T19:12:54.826Z,101460.89
2019-05-21T19:15:24.296Z,101453.79
2019-05-21T19:18:21.427Z,101454.92
2019-05-21T19:20:51.488Z,101453.75
2019-05-21T19:23:21.121Z,101459.38
2019-05-21T19:25:56.262Z,101462.08
2019-05-21T19:28:29.376Z,101459.97
2019-05-21T19:30:58.832Z,101470.60
2019-05-21T19:33:28.291Z,101469.47
2019-05-21T19:35:57.747Z,101478.56
2019-05-21T19:38:27.097Z,101470.95
2019-05-21T19:40:58.059Z,101484.56
2019-05-21T19:43:27.444Z,101477.54
2019-05-21T19:45:56.832Z,101485.27
2019-05-21T19:48:26.225Z,101493.47
2019-05-21T19:50:55.649Z,101493.27
2019-05-21T19:53:25.017Z,101505.13
2019-05-21T19:55:54.517Z,101510.63
2019-05-21T19:58:23.817Z,101507.09
2019-05-21T20:00:55.026Z,101514.84
2019-05-21T20:03:24.818Z,101514.23
2019-05-21T20:05:54.313Z,101516.90
2019-05-21T20:08:23.766Z,101517.20
2019-05-21T20:10:53.363Z,101517.73
2019-05-21T20:13:32.224Z,101523.00
2019-05-21T20:15:54.961Z,101524.58
2019-05-21T20:18:24.538Z,101527.72
2019-05-21T20:20:54.885Z,101533.88
2019-05-21T20:23:24.821Z,101530.06
2019-05-21T20:25:56.812Z,101538.03
2019-05-21T20:28:26.649Z,101535.26
2019-05-21T20:30:56.656Z,101534.16
2019-05-21T20:33:26.129Z,101540.27
2019-05-21T20:35:55.699Z,101545.27
2019-05-21T20:38:31.667Z,101536.61
2019-05-21T20:41:01.148Z,101539.19
2019-05-21T20:43:30.818Z,101542.33
2019-05-21T20:46:00.713Z,101541.22
2019-05-21T20:48:32.231Z,101541.91
2019-05-21T20:51:02.190Z,101541.64
2019-05-21T20:53:31.620Z,101537.72
2019-05-21T20:56:01.350Z,101540.72
2019-05-21T20:58:31.268Z,101543.55
2019-05-21T21:01:02.161Z,101540.43
2019-05-21T21:03:32.707Z,101545.15
2019-05-21T21:06:02.711Z,101548.05
2019-05-21T21:08:34.119Z,101543.33
2019-05-21T21:11:04.984Z,101547.44
2019-05-21T21:13:34.325Z,101541.00
2019-05-21T21:16:04.085Z,101542.95
2019-05-21T21:18:34.266Z,101537.71
2019-05-21T21:21:03.613Z,101541.59
2019-05-21T21:23:34.810Z,101544.16
2019-05-21T21:26:04.614Z,101543.34
2019-05-21T21:28:33.983Z,101544.22
2019-05-21T21:31:03.792Z,101544.81
2019-05-21T21:33:33.842Z,101542.55
2019-05-21T21:36:03.293Z,101541.84
2019-05-21T21:38:34.395Z,101545.69
2019-05-21T21:41:04.968Z,101549.20
2019-05-21T21:43:34.357Z,101547.39
2019-05-21T21:46:03.752Z,101546.03
2019-05-21T21:48:33.125Z,101552.66
2019-05-21T21:51:04.360Z,101548.62
2019-05-21T21:53:34.395Z,101554.26
2019-05-21T21:56:03.721Z,101553.80
2019-05-21T21:58:33.098Z,101558.22
2019-05-21T22:01:25.658Z,101558.67
2019-05-21T22:03:59.445Z,101555.28
2019-05-21T22:06:31.636Z,101556.54
2019-05-21T22:09:01.959Z,101558.57
2019-05-21T22:11:32.265Z,101554.88
2019-05-21T22:14:03.344Z,101557.79
2019-05-21T22:16:33.608Z,101555.16
2019-05-21T22:19:03.055Z,101559.95
2019-05-21T22:21:33.759Z,101557.98
2019-05-21T22:24:03.291Z,101554.92
2019-05-21T22:26:32.631Z,101558.84
2019-05-21T22:29:02.149Z,101559.70
2019-05-21T22:31:31.577Z,101562.14
2019-05-21T22:34:00.918Z,101563.77
2019-05-21T22:36:30.593Z,101557.03
2019-05-21T22:38:59.931Z,101555.70
2019-05-21T22:41:29.286Z,101560.30
2019-05-21T22:43:58.628Z,101557.59
2019-05-21T22:46:28.139Z,101562.81
2019-05-21T22:48:57.459Z,101555.72
2019-05-21T22:51:26.791Z,101555.61
2019-05-21T22:53:56.108Z,101560.45
2019-05-21T22:56:25.555Z,101556.75
2019-05-21T22:58:54.848Z,101554.37
2019-05-21T23:01:25.962Z,101563.03
2019-05-21T23:03:57.120Z,101564.94
2019-05-21T23:06:26.420Z,101561.89
2019-05-21T23:08:56.054Z,101565.69
2019-05-21T23:11:25.545Z,101560.20
2019-05-21T23:13:54.899Z,101560.30
2019-05-21T23:16:24.228Z,101559.57
2019-05-21T23:18:54.168Z,101557.20
2019-05-21T23:21:23.484Z,101555.31
2019-05-21T23:23:53.624Z,101549.06
2019-05-21T23:26:23.885Z,101555.58
2019-05-21T23:28:54.355Z,101554.19
2019-05-21T23:31:24.286Z,101549.04
2019-05-21T23:33:56.326Z,101555.70
2019-05-21T23:36:26.188Z,101551.47
2019-05-21T23:38:57.033Z,101549.50
2019-05-21T23:41:26.771Z,101551.87
2019-05-21T23:43:56.183Z,101561.98
2019-05-21T23:46:25.827Z,101562.97
2019-05-21T23:48:55.168Z,101556.25
2019-05-21T23:51:24.566Z,101555.60
2019-05-21T23:53:53.910Z,101568.48
2019-05-21T23:56:23.226Z,101567.36
2019-05-21T23:58:52.697Z,101561.97
